sensor_id;sensor_type;location;lat;lon;timestamp;P1;durP1;ratioP1;P2;durP2;ratioP2
4268;SDS011;2148;48.554;7.834;2024-02-28T00:01:59;14.70;;;12.43;;
4268;SDS011;2148;48.554;7.834;2024-02-28T00:04:24;15.03;;;13.53;;
4268;SDS011;2148;48.554;7.834;2024-02-28T00:06:50;20.10;;;14.47;;
4268;SDS011;2148;48.554;7.834;2024-02-28T00:09:15;17.43;;;13.97;;
4268;SDS011;2148;48.554;7.834;2024-02-28T00:11:42;17.40;;;14.30;;
4268;SDS011;2148;48.554;7.834;2024-02-28T00:14:08;17.80;;;13.60;;
4268;SDS011;2148;48.554;7.834;2024-02-28T00:16:34;17.10;;;14.37;;
4268;SDS011;2148;48.554;7.834;2024-02-28T00:18:59;19.00;;;16.27;;
4268;SDS011;2148;48.554;7.834;2024-02-28T00:21:24;21.80;;;16.30;;
4268;SDS011;2148;48.554;7.834;2024-02-28T00:23:49;16.60;;;14.90;;
4268;SDS011;2148;48.554;7.834;2024-02-28T00:26:15;19.70;;;15.03;;
4268;SDS011;2148;48.554;7.834;2024-02-28T00:28:40;17.17;;;13.40;;
4268;SDS011;2148;48.554;7.834;2024-02-28T00:31:05;15.83;;;14.10;;
4268;SDS011;2148;48.554;7.834;2024-02-28T00:33:30;16.03;;;12.90;;
4268;SDS011;2148;48.554;7.834;2024-02-28T00:35:56;16.23;;;13.73;;
4268;SDS011;2148;48.554;7.834;2024-02-28T00:38:21;17.17;;;14.60;;
4268;SDS011;2148;48.554;7.834;2024-02-28T00:40:47;16.00;;;14.30;;
4268;SDS011;2148;48.554;7.834;2024-02-28T00:43:12;15.57;;;13.90;;
4268;SDS011;2148;48.554;7.834;2024-02-28T00:45:37;17.47;;;13.87;;
4268;SDS011;2148;48.554;7.834;2024-02-28T00:48:03;16.03;;;14.33;;
4268;SDS011;2148;48.554;7.834;2024-02-28T00:50:28;16.47;;;13.80;;
4268;SDS011;2148;48.554;7.834;2024-02-28T00:52:53;17.73;;;15.80;;
4268;SDS011;2148;48.554;7.834;2024-02-28T00:55:18;19.37;;;15.40;;
4268;SDS011;2148;48.554;7.834;2024-02-28T00:57:44;15.63;;;13.80;;
4268;SDS011;2148;48.554;7.834;2024-02-28T01:00:09;17.63;;;14.20;;
4268;SDS011;2148;48.554;7.834;2024-02-28T01:02:35;17.30;;;15.43;;
4268;SDS011;2148;48.554;7.834;2024-02-28T01:05:00;17.40;;;14.37;;
4268;SDS011;2148;48.554;7.834;2024-02-28T01:07:26;18.03;;;14.30;;
4268;SDS011;2148;48.554;7.834;2024-02-28T01:09:51;17.47;;;14.63;;
4268;SDS011;2148;48.554;7.834;2024-02-28T01:12:16;16.90;;;15.10;;
4268;SDS011;2148;48.554;7.834;2024-02-28T01:14:42;20.10;;;15.63;;
4268;SDS011;2148;48.554;7.834;2024-02-28T01:17:07;19.27;;;15.60;;
4268;SDS011;2148;48.554;7.834;2024-02-28T01:19:32;18.33;;;15.80;;
4268;SDS011;2148;48.554;7.834;2024-02-28T01:21:58;15.37;;;12.87;;
4268;SDS011;2148;48.554;7.834;2024-02-28T01:24:23;15.63;;;13.40;;
4268;SDS011;2148;48.554;7.834;2024-02-28T01:26:48;18.10;;;14.13;;
4268;SDS011;2148;48.554;7.834;2024-02-28T01:29:14;19.17;;;14.13;;
4268;SDS011;2148;48.554;7.834;2024-02-28T01:31:39;18.73;;;14.50;;
4268;SDS011;2148;48.554;7.834;2024-02-28T01:34:04;16.70;;;13.83;;
4268;SDS011;2148;48.554;7.834;2024-02-28T01:36:29;18.00;;;14.07;;
4268;SDS011;2148;48.554;7.834;2024-02-28T01:38:55;17.50;;;13.53;;
4268;SDS011;2148;48.554;7.834;2024-02-28T01:41:20;16.80;;;14.17;;
4268;SDS011;2148;48.554;7.834;2024-02-28T01:43:45;16.33;;;13.87;;
4268;SDS011;2148;48.554;7.834;2024-02-28T01:46:17;17.13;;;13.80;;
4268;SDS011;2148;48.554;7.834;2024-02-28T01:49:02;17.47;;;14.83;;
4268;SDS011;2148;48.554;7.834;2024-02-28T01:51:27;18.90;;;16.13;;
4268;SDS011;2148;48.554;7.834;2024-02-28T01:53:52;16.63;;;14.73;;
4268;SDS011;2148;48.554;7.834;2024-02-28T01:56:18;16.87;;;14.73;;
4268;SDS011;2148;48.554;7.834;2024-02-28T01:58:47;19.03;;;15.80;;
4268;SDS011;2148;48.554;7.834;2024-02-28T02:01:13;19.93;;;14.90;;
4268;SDS011;2148;48.554;7.834;2024-02-28T02:03:39;16.30;;;13.47;;
4268;SDS011;2148;48.554;7.834;2024-02-28T02:06:04;15.80;;;13.80;;
4268;SDS011;2148;48.554;7.834;2024-02-28T02:08:30;18.03;;;13.50;;
4268;SDS011;2148;48.554;7.834;2024-02-28T02:10:55;15.60;;;13.10;;
4268;SDS011;2148;48.554;7.834;2024-02-28T02:13:21;19.00;;;15.67;;
4268;SDS011;2148;48.554;7.834;2024-02-28T02:15:46;19.10;;;14.67;;
4268;SDS011;2148;48.554;7.834;2024-02-28T02:18:12;18.03;;;14.20;;
4268;SDS011;2148;48.554;7.834;2024-02-28T02:20:38;16.07;;;14.00;;
4268;SDS011;2148;48.554;7.834;2024-02-28T02:23:04;16.43;;;14.20;;
4268;SDS011;2148;48.554;7.834;2024-02-28T02:25:29;16.73;;;14.10;;
4268;SDS011;2148;48.554;7.834;2024-02-28T02:27:54;16.97;;;13.57;;
4268;SDS011;2148;48.554;7.834;2024-02-28T02:30:20;16.80;;;14.30;;
4268;SDS011;2148;48.554;7.834;2024-02-28T02:32:45;17.03;;;13.87;;
4268;SDS011;2148;48.554;7.834;2024-02-28T02:35:10;15.70;;;13.20;;
4268;SDS011;2148;48.554;7.834;2024-02-28T02:37:36;15.37;;;12.03;;
4268;SDS011;2148;48.554;7.834;2024-02-28T02:40:01;15.70;;;11.97;;
4268;SDS011;2148;48.554;7.834;2024-02-28T02:42:27;14.47;;;12.33;;
4268;SDS011;2148;48.554;7.834;2024-02-28T02:44:52;15.53;;;13.10;;
4268;SDS011;2148;48.554;7.834;2024-02-28T02:47:17;15.57;;;13.27;;
4268;SDS011;2148;48.554;7.834;2024-02-28T02:49:42;16.47;;;13.67;;
4268;SDS011;2148;48.554;7.834;2024-02-28T02:52:08;15.20;;;12.57;;
4268;SDS011;2148;48.554;7.834;2024-02-28T02:54:33;16.30;;;13.83;;
4268;SDS011;2148;48.554;7.834;2024-02-28T02:56:58;16.53;;;13.43;;
4268;SDS011;2148;48.554;7.834;2024-02-28T02:59:23;15.73;;;13.57;;
4268;SDS011;2148;48.554;7.834;2024-02-28T03:01:49;15.60;;;13.67;;
4268;SDS011;2148;48.554;7.834;2024-02-28T03:04:14;15.93;;;14.23;;
4268;SDS011;2148;48.554;7.834;2024-02-28T03:06:40;16.97;;;14.53;;
4268;SDS011;2148;48.554;7.834;2024-02-28T03:09:05;15.87;;;14.07;;
4268;SDS011;2148;48.554;7.834;2024-02-28T03:11:32;18.97;;;15.13;;
4268;SDS011;2148;48.554;7.834;2024-02-28T03:14:00;16.70;;;14.33;;
4268;SDS011;2148;48.554;7.834;2024-02-28T03:16:25;18.00;;;15.00;;
4268;SDS011;2148;48.554;7.834;2024-02-28T03:18:50;17.60;;;15.30;;
4268;SDS011;2148;48.554;7.834;2024-02-28T03:21:15;21.53;;;16.00;;
4268;SDS011;2148;48.554;7.834;2024-02-28T03:23:42;21.73;;;17.27;;
4268;SDS011;2148;48.554;7.834;2024-02-28T03:26:07;19.30;;;16.07;;
4268;SDS011;2148;48.554;7.834;2024-02-28T03:28:32;19.47;;;16.70;;
4268;SDS011;2148;48.554;7.834;2024-02-28T03:30:57;21.00;;;16.60;;
4268;SDS011;2148;48.554;7.834;2024-02-28T03:33:22;21.03;;;16.97;;
4268;SDS011;2148;48.554;7.834;2024-02-28T03:35:49;18.53;;;15.43;;
4268;SDS011;2148;48.554;7.834;2024-02-28T03:38:15;18.50;;;16.07;;
4268;SDS011;2148;48.554;7.834;2024-02-28T03:40:40;24.27;;;16.47;;
4268;SDS011;2148;48.554;7.834;2024-02-28T03:43:05;20.27;;;17.30;;
4268;SDS011;2148;48.554;7.834;2024-02-28T03:45:30;21.80;;;17.40;;
4268;SDS011;2148;48.554;7.834;2024-02-28T03:47:56;19.30;;;15.50;;
4268;SDS011;2148;48.554;7.834;2024-02-28T03:50:21;21.03;;;15.97;;
4268;SDS011;2148;48.554;7.834;2024-02-28T03:52:46;21.17;;;16.47;;
4268;SDS011;2148;48.554;7.834;2024-02-28T03:55:11;21.50;;;16.33;;
4268;SDS011;2148;48.554;7.834;2024-02-28T03:57:36;19.67;;;16.47;;
4268;SDS011;2148;48.554;7.834;2024-02-28T04:00:02;20.93;;;17.10;;
4268;SDS011;2148;48.554;7.834;2024-02-28T04:02:27;21.07;;;16.63;;
4268;SDS011;2148;48.554;7.834;2024-02-28T04:04:53;24.20;;;18.83;;
4268;SDS011;2148;48.554;7.834;2024-02-28T04:07:18;21.93;;;17.77;;
4268;SDS011;2148;48.554;7.834;2024-02-28T04:09:43;21.67;;;17.40;;
4268;SDS011;2148;48.554;7.834;2024-02-28T04:12:08;24.03;;;19.07;;
4268;SDS011;2148;48.554;7.834;2024-02-28T04:14:36;22.13;;;16.70;;
4268;SDS011;2148;48.554;7.834;2024-02-28T04:17:03;23.53;;;18.50;;
4268;SDS011;2148;48.554;7.834;2024-02-28T04:19:28;24.47;;;19.37;;
4268;SDS011;2148;48.554;7.834;2024-02-28T04:21:53;23.27;;;18.90;;
4268;SDS011;2148;48.554;7.834;2024-02-28T04:24:18;23.83;;;19.77;;
4268;SDS011;2148;48.554;7.834;2024-02-28T04:26:44;25.93;;;19.13;;
4268;SDS011;2148;48.554;7.834;2024-02-28T04:29:09;29.27;;;22.43;;
4268;SDS011;2148;48.554;7.834;2024-02-28T04:31:38;25.67;;;20.40;;
4268;SDS011;2148;48.554;7.834;2024-02-28T04:34:04;30.60;;;21.47;;
4268;SDS011;2148;48.554;7.834;2024-02-28T04:36:29;29.07;;;21.20;;
4268;SDS011;2148;48.554;7.834;2024-02-28T04:38:54;28.97;;;21.43;;
4268;SDS011;2148;48.554;7.834;2024-02-28T04:41:19;25.87;;;21.83;;
4268;SDS011;2148;48.554;7.834;2024-02-28T04:43:44;27.27;;;21.13;;
4268;SDS011;2148;48.554;7.834;2024-02-28T04:46:10;29.87;;;20.67;;
4268;SDS011;2148;48.554;7.834;2024-02-28T04:48:35;26.50;;;20.87;;
4268;SDS011;2148;48.554;7.834;2024-02-28T04:51:00;27.10;;;20.27;;
4268;SDS011;2148;48.554;7.834;2024-02-28T04:53:27;28.00;;;21.00;;
4268;SDS011;2148;48.554;7.834;2024-02-28T04:55:52;28.10;;;20.77;;
4268;SDS011;2148;48.554;7.834;2024-02-28T04:58:17;25.40;;;21.23;;
4268;SDS011;2148;48.554;7.834;2024-02-28T05:00:43;25.67;;;20.93;;
4268;SDS011;2148;48.554;7.834;2024-02-28T05:03:08;24.00;;;19.43;;
4268;SDS011;2148;48.554;7.834;2024-02-28T05:05:33;28.93;;;21.50;;
4268;SDS011;2148;48.554;7.834;2024-02-28T05:07:59;26.67;;;20.87;;
4268;SDS011;2148;48.554;7.834;2024-02-28T05:10:24;23.70;;;19.10;;
4268;SDS011;2148;48.554;7.834;2024-02-28T05:12:49;24.80;;;20.37;;
4268;SDS011;2148;48.554;7.834;2024-02-28T05:15:14;23.47;;;19.57;;
4268;SDS011;2148;48.554;7.834;2024-02-28T05:17:40;27.37;;;21.00;;
4268;SDS011;2148;48.554;7.834;2024-02-28T05:20:05;24.67;;;19.33;;
4268;SDS011;2148;48.554;7.834;2024-02-28T05:22:31;24.07;;;20.73;;
4268;SDS011;2148;48.554;7.834;2024-02-28T05:24:56;28.27;;;20.53;;
4268;SDS011;2148;48.554;7.834;2024-02-28T05:27:21;24.57;;;18.77;;
4268;SDS011;2148;48.554;7.834;2024-02-28T05:29:47;26.70;;;20.70;;
4268;SDS011;2148;48.554;7.834;2024-02-28T05:32:12;25.63;;;20.17;;
4268;SDS011;2148;48.554;7.834;2024-02-28T05:34:38;22.20;;;16.97;;
4268;SDS011;2148;48.554;7.834;2024-02-28T05:37:03;26.47;;;19.80;;
4268;SDS011;2148;48.554;7.834;2024-02-28T05:39:28;24.00;;;19.47;;
4268;SDS011;2148;48.554;7.834;2024-02-28T05:41:55;25.70;;;19.43;;
4268;SDS011;2148;48.554;7.834;2024-02-28T05:44:21;25.57;;;19.87;;
4268;SDS011;2148;48.554;7.834;2024-02-28T05:46:46;28.27;;;19.70;;
4268;SDS011;2148;48.554;7.834;2024-02-28T05:49:11;25.00;;;19.57;;
4268;SDS011;2148;48.554;7.834;2024-02-28T05:51:36;26.67;;;20.67;;
4268;SDS011;2148;48.554;7.834;2024-02-28T05:54:02;28.13;;;21.97;;
4268;SDS011;2148;48.554;7.834;2024-02-28T05:56:27;26.07;;;20.53;;
4268;SDS011;2148;48.554;7.834;2024-02-28T05:58:52;26.03;;;20.20;;
4268;SDS011;2148;48.554;7.834;2024-02-28T06:01:18;24.47;;;19.90;;
4268;SDS011;2148;48.554;7.834;2024-02-28T06:03:45;26.47;;;19.47;;
4268;SDS011;2148;48.554;7.834;2024-02-28T06:06:11;24.90;;;20.40;;
4268;SDS011;2148;48.554;7.834;2024-02-28T06:08:39;26.03;;;20.90;;
4268;SDS011;2148;48.554;7.834;2024-02-28T06:11:05;27.63;;;21.20;;
4268;SDS011;2148;48.554;7.834;2024-02-28T06:13:31;28.17;;;22.07;;
4268;SDS011;2148;48.554;7.834;2024-02-28T06:15:56;29.97;;;22.30;;
4268;SDS011;2148;48.554;7.834;2024-02-28T06:18:22;30.53;;;21.90;;
4268;SDS011;2148;48.554;7.834;2024-02-28T06:20:55;24.13;;;19.37;;
4268;SDS011;2148;48.554;7.834;2024-02-28T06:23:21;24.77;;;19.13;;
4268;SDS011;2148;48.554;7.834;2024-02-28T06:25:49;25.93;;;20.20;;
4268;SDS011;2148;48.554;7.834;2024-02-28T06:28:14;26.40;;;19.47;;
4268;SDS011;2148;48.554;7.834;2024-02-28T06:30:40;25.33;;;20.37;;
4268;SDS011;2148;48.554;7.834;2024-02-28T06:33:05;26.53;;;20.67;;
4268;SDS011;2148;48.554;7.834;2024-02-28T06:35:30;28.60;;;20.77;;
4268;SDS011;2148;48.554;7.834;2024-02-28T06:37:56;24.20;;;19.33;;
4268;SDS011;2148;48.554;7.834;2024-02-28T06:40:21;23.90;;;19.83;;
4268;SDS011;2148;48.554;7.834;2024-02-28T06:42:46;28.57;;;21.77;;
4268;SDS011;2148;48.554;7.834;2024-02-28T06:45:11;25.93;;;20.50;;
4268;SDS011;2148;48.554;7.834;2024-02-28T06:47:37;29.57;;;22.93;;
4268;SDS011;2148;48.554;7.834;2024-02-28T06:50:03;26.77;;;20.57;;
4268;SDS011;2148;48.554;7.834;2024-02-28T06:52:29;28.70;;;21.40;;
4268;SDS011;2148;48.554;7.834;2024-02-28T06:54:54;31.27;;;22.80;;
4268;SDS011;2148;48.554;7.834;2024-02-28T06:57:20;29.73;;;21.70;;
4268;SDS011;2148;48.554;7.834;2024-02-28T06:59:45;30.93;;;21.40;;
4268;SDS011;2148;48.554;7.834;2024-02-28T07:02:10;26.60;;;21.37;;
4268;SDS011;2148;48.554;7.834;2024-02-28T07:04:35;27.80;;;20.47;;
4268;SDS011;2148;48.554;7.834;2024-02-28T07:07:01;27.90;;;22.23;;
4268;SDS011;2148;48.554;7.834;2024-02-28T07:09:26;27.07;;;21.93;;
4268;SDS011;2148;48.554;7.834;2024-02-28T07:11:54;30.03;;;23.23;;
4268;SDS011;2148;48.554;7.834;2024-02-28T07:14:20;30.80;;;22.27;;
4268;SDS011;2148;48.554;7.834;2024-02-28T07:16:45;31.47;;;22.33;;
4268;SDS011;2148;48.554;7.834;2024-02-28T07:19:10;29.53;;;22.97;;
4268;SDS011;2148;48.554;7.834;2024-02-28T07:21:35;30.83;;;22.07;;
4268;SDS011;2148;48.554;7.834;2024-02-28T07:24:01;30.80;;;22.80;;
4268;SDS011;2148;48.554;7.834;2024-02-28T07:26:27;30.10;;;22.83;;
4268;SDS011;2148;48.554;7.834;2024-02-28T07:28:53;31.07;;;22.70;;
4268;SDS011;2148;48.554;7.834;2024-02-28T07:31:18;32.43;;;22.97;;
4268;SDS011;2148;48.554;7.834;2024-02-28T07:33:44;29.93;;;21.77;;
4268;SDS011;2148;48.554;7.834;2024-02-28T07:36:09;33.40;;;23.30;;
4268;SDS011;2148;48.554;7.834;2024-02-28T07:38:35;29.40;;;22.67;;
4268;SDS011;2148;48.554;7.834;2024-02-28T07:41:00;33.50;;;24.77;;
4268;SDS011;2148;48.554;7.834;2024-02-28T07:43:25;31.87;;;21.63;;
4268;SDS011;2148;48.554;7.834;2024-02-28T07:45:51;31.30;;;23.73;;
4268;SDS011;2148;48.554;7.834;2024-02-28T07:48:16;30.67;;;22.80;;
4268;SDS011;2148;48.554;7.834;2024-02-28T07:50:43;33.30;;;24.33;;
4268;SDS011;2148;48.554;7.834;2024-02-28T07:53:09;29.90;;;22.77;;
4268;SDS011;2148;48.554;7.834;2024-02-28T07:55:34;29.17;;;22.57;;
4268;SDS011;2148;48.554;7.834;2024-02-28T07:58:00;28.03;;;21.57;;
4268;SDS011;2148;48.554;7.834;2024-02-28T08:00:25;27.37;;;20.63;;
4268;SDS011;2148;48.554;7.834;2024-02-28T08:02:50;30.40;;;24.10;;
4268;SDS011;2148;48.554;7.834;2024-02-28T08:05:15;27.53;;;20.50;;
4268;SDS011;2148;48.554;7.834;2024-02-28T08:07:41;33.43;;;23.77;;
4268;SDS011;2148;48.554;7.834;2024-02-28T08:10:07;29.53;;;22.37;;
4268;SDS011;2148;48.554;7.834;2024-02-28T08:12:34;30.50;;;22.30;;
4268;SDS011;2148;48.554;7.834;2024-02-28T08:15:00;31.33;;;22.80;;
4268;SDS011;2148;48.554;7.834;2024-02-28T08:17:25;28.07;;;19.73;;
4268;SDS011;2148;48.554;7.834;2024-02-28T08:19:50;30.43;;;21.73;;
4268;SDS011;2148;48.554;7.834;2024-02-28T08:22:15;30.53;;;22.23;;
4268;SDS011;2148;48.554;7.834;2024-02-28T08:24:41;28.70;;;22.37;;
4268;SDS011;2148;48.554;7.834;2024-02-28T08:27:06;36.13;;;24.57;;
4268;SDS011;2148;48.554;7.834;2024-02-28T08:29:31;29.87;;;21.43;;
4268;SDS011;2148;48.554;7.834;2024-02-28T08:31:57;28.73;;;21.60;;
4268;SDS011;2148;48.554;7.834;2024-02-28T08:34:23;33.80;;;23.93;;
4268;SDS011;2148;48.554;7.834;2024-02-28T08:36:48;30.63;;;21.63;;
4268;SDS011;2148;48.554;7.834;2024-02-28T08:39:14;30.83;;;22.27;;
4268;SDS011;2148;48.554;7.834;2024-02-28T08:41:39;28.43;;;19.73;;
4268;SDS011;2148;48.554;7.834;2024-02-28T08:44:04;33.27;;;23.77;;
4268;SDS011;2148;48.554;7.834;2024-02-28T08:46:29;31.30;;;23.70;;
4268;SDS011;2148;48.554;7.834;2024-02-28T08:48:55;37.33;;;25.43;;
4268;SDS011;2148;48.554;7.834;2024-02-28T08:51:20;31.17;;;23.27;;
4268;SDS011;2148;48.554;7.834;2024-02-28T08:53:45;33.13;;;24.57;;
4268;SDS011;2148;48.554;7.834;2024-02-28T08:56:10;31.70;;;23.30;;
4268;SDS011;2148;48.554;7.834;2024-02-28T08:58:36;33.67;;;25.10;;
4268;SDS011;2148;48.554;7.834;2024-02-28T09:01:02;31.73;;;21.93;;
4268;SDS011;2148;48.554;7.834;2024-02-28T09:03:28;30.83;;;22.73;;
4268;SDS011;2148;48.554;7.834;2024-02-28T09:05:53;29.77;;;21.80;;
4268;SDS011;2148;48.554;7.834;2024-02-28T09:08:18;29.63;;;20.00;;
4268;SDS011;2148;48.554;7.834;2024-02-28T09:10:43;28.50;;;20.50;;
4268;SDS011;2148;48.554;7.834;2024-02-28T09:13:09;27.00;;;22.07;;
4268;SDS011;2148;48.554;7.834;2024-02-28T09:15:36;30.13;;;22.77;;
4268;SDS011;2148;48.554;7.834;2024-02-28T09:18:02;29.00;;;22.77;;
4268;SDS011;2148;48.554;7.834;2024-02-28T09:20:27;28.37;;;23.77;;
4268;SDS011;2148;48.554;7.834;2024-02-28T09:22:53;29.27;;;22.73;;
4268;SDS011;2148;48.554;7.834;2024-02-28T09:25:18;31.30;;;22.83;;
4268;SDS011;2148;48.554;7.834;2024-02-28T09:27:43;27.43;;;21.57;;
4268;SDS011;2148;48.554;7.834;2024-02-28T09:30:09;31.13;;;21.97;;
4268;SDS011;2148;48.554;7.834;2024-02-28T09:32:34;32.37;;;24.27;;
4268;SDS011;2148;48.554;7.834;2024-02-28T09:35:00;31.00;;;23.60;;
4268;SDS011;2148;48.554;7.834;2024-02-28T09:37:25;32.87;;;23.63;;
4268;SDS011;2148;48.554;7.834;2024-02-28T09:39:50;29.07;;;21.77;;
4268;SDS011;2148;48.554;7.834;2024-02-28T09:42:16;33.03;;;25.07;;
4268;SDS011;2148;48.554;7.834;2024-02-28T09:44:41;32.80;;;23.60;;
4268;SDS011;2148;48.554;7.834;2024-02-28T09:47:07;29.00;;;22.63;;
4268;SDS011;2148;48.554;7.834;2024-02-28T09:49:33;27.37;;;19.93;;
4268;SDS011;2148;48.554;7.834;2024-02-28T09:51:59;31.07;;;22.93;;
4268;SDS011;2148;48.554;7.834;2024-02-28T09:54:24;32.93;;;23.77;;
4268;SDS011;2148;48.554;7.834;2024-02-28T09:56:50;28.20;;;21.07;;
4268;SDS011;2148;48.554;7.834;2024-02-28T09:59:16;23.57;;;19.13;;
4268;SDS011;2148;48.554;7.834;2024-02-28T10:01:43;28.73;;;21.60;;
4268;SDS011;2148;48.554;7.834;2024-02-28T10:04:09;28.47;;;21.80;;
4268;SDS011;2148;48.554;7.834;2024-02-28T10:06:37;28.87;;;22.50;;
4268;SDS011;2148;48.554;7.834;2024-02-28T10:09:03;25.17;;;19.43;;
4268;SDS011;2148;48.554;7.834;2024-02-28T10:11:30;31.87;;;22.53;;
4268;SDS011;2148;48.554;7.834;2024-02-28T10:13:55;31.73;;;24.60;;
4268;SDS011;2148;48.554;7.834;2024-02-28T10:16:20;29.03;;;22.40;;
4268;SDS011;2148;48.554;7.834;2024-02-28T10:18:45;29.53;;;21.93;;
4268;SDS011;2148;48.554;7.834;2024-02-28T10:21:11;28.97;;;22.03;;
4268;SDS011;2148;48.554;7.834;2024-02-28T10:23:43;24.33;;;19.40;;
4268;SDS011;2148;48.554;7.834;2024-02-28T10:26:09;30.17;;;22.73;;
4268;SDS011;2148;48.554;7.834;2024-02-28T10:28:41;26.63;;;20.77;;
4268;SDS011;2148;48.554;7.834;2024-02-28T10:31:08;28.63;;;19.30;;
4268;SDS011;2148;48.554;7.834;2024-02-28T10:33:33;25.93;;;20.10;;
4268;SDS011;2148;48.554;7.834;2024-02-28T10:36:01;25.63;;;20.17;;
4268;SDS011;2148;48.554;7.834;2024-02-28T10:38:30;26.13;;;20.20;;
4268;SDS011;2148;48.554;7.834;2024-02-28T10:40:58;23.70;;;18.83;;
4268;SDS011;2148;48.554;7.834;2024-02-28T10:43:30;26.83;;;19.73;;
4268;SDS011;2148;48.554;7.834;2024-02-28T10:45:59;25.87;;;18.33;;
4268;SDS011;2148;48.554;7.834;2024-02-28T10:48:25;29.17;;;21.60;;
4268;SDS011;2148;48.554;7.834;2024-02-28T10:50:50;28.87;;;21.07;;
4268;SDS011;2148;48.554;7.834;2024-02-28T10:53:18;30.07;;;21.77;;
4268;SDS011;2148;48.554;7.834;2024-02-28T10:55:47;24.90;;;20.13;;
4268;SDS011;2148;48.554;7.834;2024-02-28T10:58:13;24.23;;;20.00;;
4268;SDS011;2148;48.554;7.834;2024-02-28T11:00:39;24.70;;;18.97;;
4268;SDS011;2148;48.554;7.834;2024-02-28T11:03:12;23.67;;;18.00;;
4268;SDS011;2148;48.554;7.834;2024-02-28T11:05:39;21.50;;;18.03;;
4268;SDS011;2148;48.554;7.834;2024-02-28T11:08:21;23.43;;;17.77;;
4268;SDS011;2148;48.554;7.834;2024-02-28T11:10:53;25.10;;;19.43;;
4268;SDS011;2148;48.554;7.834;2024-02-28T11:13:23;24.37;;;18.77;;
4268;SDS011;2148;48.554;7.834;2024-02-28T11:15:49;25.43;;;17.00;;
4268;SDS011;2148;48.554;7.834;2024-02-28T11:18:15;22.67;;;18.57;;
4268;SDS011;2148;48.554;7.834;2024-02-28T11:20:40;24.03;;;18.53;;
4268;SDS011;2148;48.554;7.834;2024-02-28T11:23:07;21.63;;;17.03;;
4268;SDS011;2148;48.554;7.834;2024-02-28T11:25:34;22.67;;;16.83;;
4268;SDS011;2148;48.554;7.834;2024-02-28T11:27:59;21.83;;;17.47;;
4268;SDS011;2148;48.554;7.834;2024-02-28T11:30:25;23.47;;;16.83;;
4268;SDS011;2148;48.554;7.834;2024-02-28T11:32:54;22.60;;;16.73;;
4268;SDS011;2148;48.554;7.834;2024-02-28T11:35:19;23.27;;;17.80;;
4268;SDS011;2148;48.554;7.834;2024-02-28T11:37:45;24.57;;;19.20;;
4268;SDS011;2148;48.554;7.834;2024-02-28T11:40:12;23.13;;;18.30;;
4268;SDS011;2148;48.554;7.834;2024-02-28T11:42:38;22.80;;;17.70;;
4268;SDS011;2148;48.554;7.834;2024-02-28T11:45:04;20.90;;;17.37;;
4268;SDS011;2148;48.554;7.834;2024-02-28T11:47:31;19.90;;;15.63;;
4268;SDS011;2148;48.554;7.834;2024-02-28T11:49:58;21.37;;;17.00;;
4268;SDS011;2148;48.554;7.834;2024-02-28T11:52:25;17.50;;;15.13;;
4268;SDS011;2148;48.554;7.834;2024-02-28T11:54:50;18.93;;;14.30;;
4268;SDS011;2148;48.554;7.834;2024-02-28T11:57:15;21.50;;;16.80;;
4268;SDS011;2148;48.554;7.834;2024-02-28T11:59:43;18.10;;;14.63;;
4268;SDS011;2148;48.554;7.834;2024-02-28T12:02:12;44.10;;;27.73;;
4268;SDS011;2148;48.554;7.834;2024-02-28T12:04:39;20.10;;;15.87;;
4268;SDS011;2148;48.554;7.834;2024-02-28T12:07:05;20.60;;;16.73;;
4268;SDS011;2148;48.554;7.834;2024-02-28T12:09:30;17.60;;;14.43;;
4268;SDS011;2148;48.554;7.834;2024-02-28T12:11:56;20.33;;;17.07;;
4268;SDS011;2148;48.554;7.834;2024-02-28T12:14:31;21.73;;;16.70;;
4268;SDS011;2148;48.554;7.834;2024-02-28T12:16:57;18.13;;;14.87;;
4268;SDS011;2148;48.554;7.834;2024-02-28T12:19:23;18.50;;;13.93;;
4268;SDS011;2148;48.554;7.834;2024-02-28T12:21:49;15.73;;;12.30;;
4268;SDS011;2148;48.554;7.834;2024-02-28T12:24:14;18.30;;;13.53;;
4268;SDS011;2148;48.554;7.834;2024-02-28T12:26:40;17.23;;;14.90;;
4268;SDS011;2148;48.554;7.834;2024-02-28T12:29:06;19.13;;;15.37;;
4268;SDS011;2148;48.554;7.834;2024-02-28T12:31:31;17.40;;;14.70;;
4268;SDS011;2148;48.554;7.834;2024-02-28T12:33:57;19.43;;;15.60;;
4268;SDS011;2148;48.554;7.834;2024-02-28T12:36:22;17.47;;;13.57;;
4268;SDS011;2148;48.554;7.834;2024-02-28T12:38:47;18.03;;;15.10;;
4268;SDS011;2148;48.554;7.834;2024-02-28T12:41:13;17.57;;;14.53;;
4268;SDS011;2148;48.554;7.834;2024-02-28T12:43:39;14.17;;;11.87;;
4268;SDS011;2148;48.554;7.834;2024-02-28T12:46:04;15.50;;;12.87;;
4268;SDS011;2148;48.554;7.834;2024-02-28T12:48:30;14.67;;;12.37;;
4268;SDS011;2148;48.554;7.834;2024-02-28T12:50:56;16.13;;;13.60;;
4268;SDS011;2148;48.554;7.834;2024-02-28T12:53:22;15.80;;;13.43;;
4268;SDS011;2148;48.554;7.834;2024-02-28T12:55:47;16.60;;;13.70;;
4268;SDS011;2148;48.554;7.834;2024-02-28T12:58:12;15.50;;;13.83;;
4268;SDS011;2148;48.554;7.834;2024-02-28T13:00:37;17.43;;;14.20;;
4268;SDS011;2148;48.554;7.834;2024-02-28T13:03:03;19.13;;;15.70;;
4268;SDS011;2148;48.554;7.834;2024-02-28T13:05:29;17.43;;;13.07;;
4268;SDS011;2148;48.554;7.834;2024-02-28T13:07:55;16.13;;;13.23;;
4268;SDS011;2148;48.554;7.834;2024-02-28T13:10:20;14.13;;;11.80;;
4268;SDS011;2148;48.554;7.834;2024-02-28T13:12:46;14.57;;;12.23;;
4268;SDS011;2148;48.554;7.834;2024-02-28T13:15:12;15.57;;;13.57;;
4268;SDS011;2148;48.554;7.834;2024-02-28T13:17:37;14.37;;;12.80;;
4268;SDS011;2148;48.554;7.834;2024-02-28T13:20:03;15.17;;;12.63;;
4268;SDS011;2148;48.554;7.834;2024-02-28T13:22:28;14.13;;;9.53;;
4268;SDS011;2148;48.554;7.834;2024-02-28T13:24:54;15.63;;;13.07;;
4268;SDS011;2148;48.554;7.834;2024-02-28T13:27:20;11.70;;;9.97;;
4268;SDS011;2148;48.554;7.834;2024-02-28T13:29:45;12.03;;;9.33;;
4268;SDS011;2148;48.554;7.834;2024-02-28T13:32:10;13.90;;;11.30;;
4268;SDS011;2148;48.554;7.834;2024-02-28T13:34:35;12.23;;;10.47;;
4268;SDS011;2148;48.554;7.834;2024-02-28T13:37:01;11.63;;;9.13;;
4268;SDS011;2148;48.554;7.834;2024-02-28T13:39:26;11.60;;;9.20;;
4268;SDS011;2148;48.554;7.834;2024-02-28T13:41:52;8.97;;;8.00;;
4268;SDS011;2148;48.554;7.834;2024-02-28T13:44:17;11.33;;;9.13;;
4268;SDS011;2148;48.554;7.834;2024-02-28T13:46:44;8.60;;;7.63;;
4268;SDS011;2148;48.554;7.834;2024-02-28T13:49:09;9.47;;;8.03;;
4268;SDS011;2148;48.554;7.834;2024-02-28T13:51:35;10.97;;;8.87;;
4268;SDS011;2148;48.554;7.834;2024-02-28T13:54:01;10.13;;;8.87;;
4268;SDS011;2148;48.554;7.834;2024-02-28T13:56:27;9.10;;;7.93;;
4268;SDS011;2148;48.554;7.834;2024-02-28T13:58:52;12.70;;;9.83;;
4268;SDS011;2148;48.554;7.834;2024-02-28T14:01:17;10.90;;;9.53;;
4268;SDS011;2148;48.554;7.834;2024-02-28T14:03:44;10.77;;;8.93;;
4268;SDS011;2148;48.554;7.834;2024-02-28T14:06:09;9.63;;;7.97;;
4268;SDS011;2148;48.554;7.834;2024-02-28T14:08:34;8.87;;;6.60;;
4268;SDS011;2148;48.554;7.834;2024-02-28T14:11:00;9.97;;;8.53;;
4268;SDS011;2148;48.554;7.834;2024-02-28T14:13:26;9.70;;;8.70;;
4268;SDS011;2148;48.554;7.834;2024-02-28T14:15:51;10.63;;;9.40;;
4268;SDS011;2148;48.554;7.834;2024-02-28T14:18:18;11.30;;;8.60;;
4268;SDS011;2148;48.554;7.834;2024-02-28T14:20:43;8.00;;;7.20;;
4268;SDS011;2148;48.554;7.834;2024-02-28T14:23:08;7.80;;;6.73;;
4268;SDS011;2148;48.554;7.834;2024-02-28T14:25:34;11.30;;;8.97;;
4268;SDS011;2148;48.554;7.834;2024-02-28T14:27:59;8.60;;;7.27;;
4268;SDS011;2148;48.554;7.834;2024-02-28T14:30:24;7.77;;;6.33;;
4268;SDS011;2148;48.554;7.834;2024-02-28T14:32:50;9.30;;;7.70;;
4268;SDS011;2148;48.554;7.834;2024-02-28T14:35:15;10.07;;;8.30;;
4268;SDS011;2148;48.554;7.834;2024-02-28T14:37:40;10.53;;;8.40;;
4268;SDS011;2148;48.554;7.834;2024-02-28T14:40:06;8.23;;;7.27;;
4268;SDS011;2148;48.554;7.834;2024-02-28T14:42:36;9.10;;;7.50;;